Thunderstorms From: 26-05-2018 05:06 Until: 27-05-2018 05:00 warning for: Thunderstorms Level: Yellow info button

Although rather usual in this region, locally or potentially dangerous phenomena are expected. (such as local winds, summer thunderstorms, rising streams or high waves) Be aware and pay attention to the latest weather updates, especially if you carry out activities exposed to weather or close to a stream or shoreline. 


Meteo18 Weather Cam more information Meteo18 Weather Cam


warning for Thunderstorms more information blitzortung!


Rain radar more information rain snow radar


Visit our other weather sites:

Template documentation
and downloads

And another site



Weather Underground History page Text

Daily Summary for February 9, 2018 Units:  Both    English   Metric
« Previous Day
Next Day »
Daily Weekly Monthly Yearly Custom
  High: Low: Average:
Temperature: TemperatureC °F /  -17.8 °C -3.2 °F /  -19.6 °C -0.7 °F /  -18.2 °C
Dew Point: DewpointC °F /  -17.8 °C -4.2 °F /  -20.1 °C -1.9 °F /  -18.8 °C
Humidity: Humidity % 86 % 92 %
Wind Speed: WindSpeedKMH mph /  0 km/h - 4.9 mph /  7.9 km/h
Wind Gust: WindSpeedGustKMH mph /  0 km/h - -
Wind:- - SE
Pressure: PressurehPa in /  0 hPa 1014.1 in /  34337.4 hPa -
Precipitation: 0.0 in /  0 mm    
Historical Graphs
 
 
Tabular Data for February 9, 2018
Time Temperature Dew Point Pressure Wind Wind Speed Wind Gust Humidity Rainfall Rate (Hourly)
TemperatureC °F /  -17.8 °C DewpointC °F /  -17.8 °C PressurehPa in /  0 hPa Calm     Humidity % HourlyPrecipMM in /  0 mm
00:03 -0.8 °F /  -18.2 °C -2.4 °F /  -19.1 °C 1019.9 in /  34533.8 hPa NNE 1.4 mph /  2.3 km/h 4.8 mph /  7.7 km/h 89 % 0.0 in /  0 mm
00:09 -0.8 °F /  -18.2 °C -2.4 °F /  -19.1 °C 1019.9 in /  34533.8 hPa Calm   8.0 mph /  12.9 km/h 89 % 0.0 in /  0 mm
00:15 -0.9 °F /  -18.3 °C -2.5 °F /  -19.2 °C 1019.9 in /  34533.8 hPa NNE 7.9 mph /  12.7 km/h 8.0 mph /  12.9 km/h 89 % 0.0 in /  0 mm
00:21 -0.9 °F /  -18.3 °C -2.6 °F /  -19.2 °C 1019.9 in /  34533.8 hPa NNE 4.7 mph /  7.6 km/h 8.0 mph /  12.9 km/h 88 % 0.0 in /  0 mm
00:27 -1.0 °F /  -18.3 °C -2.7 °F /  -19.3 °C 1019.9 in /  34533.8 hPa Calm   4.8 mph /  7.7 km/h 88 % 0.0 in /  0 mm
00:33 -1.1 °F /  -18.4 °C -2.7 °F /  -19.3 °C 1019.5 in /  34520.3 hPa NNE 3.2 mph /  5.1 km/h 4.8 mph /  7.7 km/h 89 % 0.0 in /  0 mm
00:39 -1.1 °F /  -18.4 °C -2.7 °F /  -19.3 °C 1019.5 in /  34520.3 hPa Calm   3.2 mph /  5.1 km/h 89 % 0.0 in /  0 mm
00:45 -1.1 °F /  -18.4 °C -2.7 °F /  -19.3 °C 1019.5 in /  34520.3 hPa Calm   3.2 mph /  5.1 km/h 89 % 0.0 in /  0 mm
00:51 -1.2 °F /  -18.4 °C -2.8 °F /  -19.3 °C 1019.5 in /  34520.3 hPa NNE 1.4 mph /  2.3 km/h 3.2 mph /  5.1 km/h 89 % 0.0 in /  0 mm
00:57 -1.2 °F /  -18.4 °C -2.8 °F /  -19.3 °C 1019.5 in /  34520.3 hPa Calm   1.6 mph /  2.6 km/h 89 % 0.0 in /  0 mm
01:03 -1.2 °F /  -18.4 °C -2.6 °F /  -19.2 °C 1019.5 in /  34520.3 hPa Calm   1.6 mph /  2.6 km/h 90 % 0.0 in /  0 mm
01:09 -1.2 °F /  -18.4 °C -2.6 °F /  -19.2 °C 1019.5 in /  34520.3 hPa Calm   1.6 mph /  2.6 km/h 90 % 0.0 in /  0 mm
01:15 -1.3 °F /  -18.5 °C -2.6 °F /  -19.2 °C 1019.5 in /  34520.3 hPa Calm   3.2 mph /  5.1 km/h 91 % 0.0 in /  0 mm
01:21 -1.2 °F /  -18.4 °C -2.5 °F /  -19.2 °C 1019.5 in /  34520.3 hPa NNE 1.4 mph /  2.3 km/h 3.2 mph /  5.1 km/h 91 % 0.0 in /  0 mm
01:27 -1.2 °F /  -18.4 °C -2.3 °F /  -19.1 °C 1019.5 in /  34520.3 hPa Calm   3.2 mph /  5.1 km/h 92 % 0.0 in /  0 mm
01:33 -1.2 °F /  -18.4 °C -2.3 °F /  -19.1 °C 1019.5 in /  34520.3 hPa Calm   6.4 mph /  10.3 km/h 92 % 0.0 in /  0 mm
01:39 -1.2 °F /  -18.4 °C -2.3 °F /  -19.1 °C 1019.5 in /  34520.3 hPa NNE 6.4 mph /  10.3 km/h 6.4 mph /  10.3 km/h 92 % 0.0 in /  0 mm
01:45 -1.2 °F /  -18.4 °C -2.5 °F /  -19.2 °C 1019.5 in /  34520.3 hPa NNE 1.4 mph /  2.3 km/h 8.0 mph /  12.9 km/h 91 % 0.0 in /  0 mm
01:51 -1.2 °F /  -18.4 °C -2.5 °F /  -19.2 °C 1019.5 in /  34520.3 hPa NNE 4.7 mph /  7.6 km/h 6.4 mph /  10.3 km/h 91 % 0.0 in /  0 mm
01:57 -1.2 °F /  -18.4 °C -2.3 °F /  -19.1 °C 1019.5 in /  34520.3 hPa NNE 1.4 mph /  2.3 km/h 4.8 mph /  7.7 km/h 92 % 0.0 in /  0 mm
02:03 -1.2 °F /  -18.4 °C -2.3 °F /  -19.1 °C 1019.2 in /  34510.1 hPa NNE 3.2 mph /  5.1 km/h 8.0 mph /  12.9 km/h 92 % 0.0 in /  0 mm
02:09 -1.2 °F /  -18.4 °C -2.5 °F /  -19.2 °C 1019.2 in /  34510.1 hPa NNE 4.7 mph /  7.6 km/h 9.7 mph /  15.6 km/h 91 % 0.0 in /  0 mm
02:15 -1.2 °F /  -18.4 °C -2.6 °F /  -19.2 °C 1019.2 in /  34510.1 hPa NNE 7.9 mph /  12.7 km/h 9.7 mph /  15.6 km/h 90 % 0.0 in /  0 mm
02:22 -1.2 °F /  -18.4 °C -2.8 °F /  -19.3 °C 1019.2 in /  34510.1 hPa NNE 4.7 mph /  7.6 km/h 12.9 mph /  20.8 km/h 89 % 0.0 in /  0 mm
02:28 -1.2 °F /  -18.4 °C -2.8 °F /  -19.3 °C 1019.2 in /  34510.1 hPa NNE 1.4 mph /  2.3 km/h 8.0 mph /  12.9 km/h 89 % 0.0 in /  0 mm
02:34 -1.2 °F /  -18.4 °C -2.8 °F /  -19.3 °C 1019.2 in /  34510.1 hPa NNE 9.7 mph /  15.6 km/h 11.3 mph /  18.2 km/h 89 % 0.0 in /  0 mm
02:40 -1.2 °F /  -18.4 °C -2.8 °F /  -19.3 °C 1019.2 in /  34510.1 hPa NNE 11.1 mph /  17.9 km/h 11.3 mph /  18.2 km/h 89 % 0.0 in /  0 mm
02:46 -1.2 °F /  -18.4 °C -2.8 °F /  -19.3 °C 1019.2 in /  34510.1 hPa NNE 4.7 mph /  7.6 km/h 8.0 mph /  12.9 km/h 89 % 0.0 in /  0 mm
02:52 -1.1 °F /  -18.4 °C -2.7 °F /  -19.3 °C 1018.8 in /  34496.6 hPa NNE 9.7 mph /  15.6 km/h 9.7 mph /  15.6 km/h 89 % 0.0 in /  0 mm
02:58 -1.1 °F /  -18.4 °C -2.7 °F /  -19.3 °C 1018.8 in /  34496.6 hPa NNE 3.2 mph /  5.1 km/h 8.0 mph /  12.9 km/h 89 % 0.0 in /  0 mm
03:04 -1.1 °F /  -18.4 °C -2.7 °F /  -19.3 °C 1018.8 in /  34496.6 hPa NNE 3.2 mph /  5.1 km/h 6.4 mph /  10.3 km/h 89 % 0.0 in /  0 mm
03:10 -1.2 °F /  -18.4 °C -2.8 °F /  -19.3 °C 1018.8 in /  34496.6 hPa NNE 4.7 mph /  7.6 km/h 6.4 mph /  10.3 km/h 89 % 0.0 in /  0 mm
03:16 -1.2 °F /  -18.4 °C -2.8 °F /  -19.3 °C 1018.5 in /  34486.4 hPa NNE 4.7 mph /  7.6 km/h 6.4 mph /  10.3 km/h 89 % 0.0 in /  0 mm
03:22 -1.2 °F /  -18.4 °C -2.8 °F /  -19.3 °C 1018.5 in /  34486.4 hPa NNE 1.4 mph /  2.3 km/h 4.8 mph /  7.7 km/h 89 % 0.0 in /  0 mm
03:28 -1.2 °F /  -18.4 °C -2.6 °F /  -19.2 °C 1018.5 in /  34486.4 hPa NNE 6.4 mph /  10.3 km/h 6.4 mph /  10.3 km/h 90 % 0.0 in /  0 mm
03:34 -1.3 °F /  -18.5 °C -2.7 °F /  -19.3 °C 1018.5 in /  34486.4 hPa NNE 3.2 mph /  5.1 km/h 6.4 mph /  10.3 km/h 90 % 0.0 in /  0 mm
03:40 -1.3 °F /  -18.5 °C -2.7 °F /  -19.3 °C 1018.5 in /  34486.4 hPa NNE 6.4 mph /  10.3 km/h 6.4 mph /  10.3 km/h 90 % 0.0 in /  0 mm
03:46 -1.3 °F /  -18.5 °C -2.7 °F /  -19.3 °C 1018.5 in /  34486.4 hPa NNE 1.4 mph /  2.3 km/h 6.4 mph /  10.3 km/h 90 % 0.0 in /  0 mm
03:52 -1.3 °F /  -18.5 °C -2.6 °F /  -19.2 °C 1018.2 in /  34476.3 hPa NNE 3.2 mph /  5.1 km/h 4.8 mph /  7.7 km/h 91 % 0.0 in /  0 mm
03:58 -1.4 °F /  -18.6 °C -2.7 °F /  -19.3 °C 1017.8 in /  34462.7 hPa NNE 4.7 mph /  7.6 km/h 8.0 mph /  12.9 km/h 91 % 0.0 in /  0 mm
04:04 -1.4 °F /  -18.6 °C -2.7 °F /  -19.3 °C 1017.8 in /  34462.7 hPa NNE 1.4 mph /  2.3 km/h 4.8 mph /  7.7 km/h 91 % 0.0 in /  0 mm
04:10 -1.4 °F /  -18.6 °C -2.7 °F /  -19.3 °C 1017.8 in /  34462.7 hPa Calm   3.2 mph /  5.1 km/h 91 % 0.0 in /  0 mm
04:16 -1.4 °F /  -18.6 °C -2.7 °F /  -19.3 °C 1017.8 in /  34462.7 hPa NNE 1.4 mph /  2.3 km/h 3.2 mph /  5.1 km/h 91 % 0.0 in /  0 mm
04:22 -1.4 °F /  -18.6 °C -2.7 °F /  -19.3 °C 1017.8 in /  34462.7 hPa NNE 1.4 mph /  2.3 km/h 4.8 mph /  7.7 km/h 91 % 0.0 in /  0 mm
04:28 -1.3 °F /  -18.5 °C -2.4 °F /  -19.1 °C 1017.8 in /  34462.7 hPa NNE 1.4 mph /  2.3 km/h 4.8 mph /  7.7 km/h 92 % 0.0 in /  0 mm
04:34 -1.4 °F /  -18.6 °C -2.5 °F /  -19.2 °C 1017.8 in /  34462.7 hPa NNE 1.4 mph /  2.3 km/h 8.0 mph /  12.9 km/h 92 % 0.0 in /  0 mm
04:40 -1.4 °F /  -18.6 °C -2.5 °F /  -19.2 °C 1017.8 in /  34462.7 hPa NNE 4.7 mph /  7.6 km/h 4.8 mph /  7.7 km/h 92 % 0.0 in /  0 mm
04:46 -1.4 °F /  -18.6 °C -2.5 °F /  -19.2 °C 1017.8 in /  34462.7 hPa NNE 1.4 mph /  2.3 km/h 6.4 mph /  10.3 km/h 92 % 0.0 in /  0 mm
04:52 -1.4 °F /  -18.6 °C -2.5 °F /  -19.2 °C 1017.8 in /  34462.7 hPa NNE 7.9 mph /  12.7 km/h 12.9 mph /  20.8 km/h 92 % 0.0 in /  0 mm
04:58 -1.3 °F /  -18.5 °C -2.6 °F /  -19.2 °C 1017.8 in /  34462.7 hPa NNE 1.4 mph /  2.3 km/h 6.4 mph /  10.3 km/h 91 % 0.0 in /  0 mm
05:04 -1.3 °F /  -18.5 °C -2.4 °F /  -19.1 °C 1017.8 in /  34462.7 hPa NNE 4.7 mph /  7.6 km/h 6.4 mph /  10.3 km/h 92 % 0.0 in /  0 mm
05:10 -1.3 °F /  -18.5 °C -2.4 °F /  -19.1 °C 1017.8 in /  34462.7 hPa NNE 3.2 mph /  5.1 km/h 8.0 mph /  12.9 km/h 92 % 0.0 in /  0 mm
05:16 -1.3 °F /  -18.5 °C -2.4 °F /  -19.1 °C 1017.8 in /  34462.7 hPa NNE 3.2 mph /  5.1 km/h 8.0 mph /  12.9 km/h 92 % 0.0 in /  0 mm
05:22 -1.4 °F /  -18.6 °C -2.5 °F /  -19.2 °C 1017.8 in /  34462.7 hPa NNE 6.4 mph /  10.3 km/h 11.3 mph /  18.2 km/h 92 % 0.0 in /  0 mm
05:28 -1.5 °F /  -18.6 °C -2.8 °F /  -19.3 °C 1017.8 in /  34462.7 hPa NNE 6.4 mph /  10.3 km/h 12.9 mph /  20.8 km/h 91 % 0.0 in /  0 mm
05:34 -1.6 °F /  -18.7 °C -2.7 °F /  -19.3 °C 1017.8 in /  34462.7 hPa NNE 4.7 mph /  7.6 km/h 6.4 mph /  10.3 km/h 92 % 0.0 in /  0 mm
05:40 -1.7 °F /  -18.7 °C -3.1 °F /  -19.5 °C 1017.8 in /  34462.7 hPa NNE 6.4 mph /  10.3 km/h 11.3 mph /  18.2 km/h 90 % 0.0 in /  0 mm
05:46 -1.7 °F /  -18.7 °C -3.0 °F /  -19.4 °C 1017.8 in /  34462.7 hPa NNE 9.7 mph /  15.6 km/h 9.7 mph /  15.6 km/h 91 % 0.0 in /  0 mm
05:52 -1.7 °F /  -18.7 °C -3.0 °F /  -19.4 °C 1017.8 in /  34462.7 hPa NNE 7.9 mph /  12.7 km/h 8.0 mph /  12.9 km/h 91 % 0.0 in /  0 mm
05:58 -1.8 °F /  -18.8 °C -3.1 °F /  -19.5 °C 1017.5 in /  34452.6 hPa NNE 6.4 mph /  10.3 km/h 6.4 mph /  10.3 km/h 91 % 0.0 in /  0 mm
06:04 -1.8 °F /  -18.8 °C -3.1 °F /  -19.5 °C 1017.5 in /  34452.6 hPa NNE 1.4 mph /  2.3 km/h 8.0 mph /  12.9 km/h 91 % 0.0 in /  0 mm
06:10 -1.8 °F /  -18.8 °C -3.1 °F /  -19.5 °C 1017.5 in /  34452.6 hPa NNE 1.4 mph /  2.3 km/h 6.4 mph /  10.3 km/h 91 % 0.0 in /  0 mm
06:16 -1.8 °F /  -18.8 °C -3.1 °F /  -19.5 °C 1017.5 in /  34452.6 hPa NNE 3.2 mph /  5.1 km/h 6.4 mph /  10.3 km/h 91 % 0.0 in /  0 mm
06:22 -1.8 °F /  -18.8 °C -3.1 °F /  -19.5 °C 1017.5 in /  34452.6 hPa NNE 4.7 mph /  7.6 km/h 8.0 mph /  12.9 km/h 91 % 0.0 in /  0 mm
06:28 -1.8 °F /  -18.8 °C -3.1 °F /  -19.5 °C 1017.2 in /  34442.4 hPa NNE 1.4 mph /  2.3 km/h 6.4 mph /  10.3 km/h 91 % 0.0 in /  0 mm
06:34 -1.8 °F /  -18.8 °C -3.1 °F /  -19.5 °C 1017.2 in /  34442.4 hPa NNE 4.7 mph /  7.6 km/h 8.0 mph /  12.9 km/h 91 % 0.0 in /  0 mm
06:41 -1.9 °F /  -18.8 °C -3.3 °F /  -19.6 °C 1017.2 in /  34442.4 hPa NNE 4.7 mph /  7.6 km/h 8.0 mph /  12.9 km/h 90 % 0.0 in /  0 mm
06:47 -1.9 °F /  -18.8 °C -3.2 °F /  -19.6 °C 1017.2 in /  34442.4 hPa NNE 4.7 mph /  7.6 km/h 8.0 mph /  12.9 km/h 91 % 0.0 in /  0 mm
06:53 -2.1 °F /  -18.9 °C -3.5 °F /  -19.7 °C 1017.2 in /  34442.4 hPa NNE 4.7 mph /  7.6 km/h 9.7 mph /  15.6 km/h 90 % 0.0 in /  0 mm
06:59 -2.1 °F /  -18.9 °C -3.5 °F /  -19.7 °C 1017.2 in /  34442.4 hPa NNE 3.2 mph /  5.1 km/h 4.8 mph /  7.7 km/h 90 % 0.0 in /  0 mm
07:05 -2.2 °F /  -19 °C -3.5 °F /  -19.7 °C 1017.2 in /  34442.4 hPa NNE 1.4 mph /  2.3 km/h 3.2 mph /  5.1 km/h 91 % 0.0 in /  0 mm
07:11 -2.4 °F /  -19.1 °C -3.7 °F /  -19.8 °C 1017.2 in /  34442.4 hPa NNE 1.4 mph /  2.3 km/h 3.2 mph /  5.1 km/h 91 % 0.0 in /  0 mm
07:17 -2.5 °F /  -19.2 °C -3.6 °F /  -19.8 °C 1017.2 in /  34442.4 hPa NNE 3.2 mph /  5.1 km/h 3.2 mph /  5.1 km/h 92 % 0.0 in /  0 mm
07:23 -2.6 °F /  -19.2 °C -3.7 °F /  -19.8 °C 1017.2 in /  34442.4 hPa NNE 1.4 mph /  2.3 km/h 4.8 mph /  7.7 km/h 92 % 0.0 in /  0 mm
07:29 -2.7 °F /  -19.3 °C -3.8 °F /  -19.9 °C 1017.2 in /  34442.4 hPa NNE 3.2 mph /  5.1 km/h 3.2 mph /  5.1 km/h 92 % 0.0 in /  0 mm
07:35 -2.7 °F /  -19.3 °C -3.7 °F /  -19.8 °C 1017.2 in /  34442.4 hPa NNE 1.4 mph /  2.3 km/h 3.2 mph /  5.1 km/h 93 % 0.0 in /  0 mm
07:41 -2.7 °F /  -19.3 °C -3.7 °F /  -19.8 °C 1016.8 in /  34428.8 hPa NNE 1.4 mph /  2.3 km/h 3.2 mph /  5.1 km/h 93 % 0.0 in /  0 mm
07:47 -2.8 °F /  -19.3 °C -3.8 °F /  -19.9 °C 1016.8 in /  34428.8 hPa NNE 1.4 mph /  2.3 km/h 3.2 mph /  5.1 km/h 93 % 0.0 in /  0 mm
07:53 -2.9 °F /  -19.4 °C -3.9 °F /  -19.9 °C 1016.8 in /  34428.8 hPa NNE 3.2 mph /  5.1 km/h 3.2 mph /  5.1 km/h 93 % 0.0 in /  0 mm
07:59 -2.9 °F /  -19.4 °C -3.9 °F /  -19.9 °C 1016.8 in /  34428.8 hPa NNE 1.4 mph /  2.3 km/h 6.4 mph /  10.3 km/h 93 % 0.0 in /  0 mm
08:05 -3.0 °F /  -19.4 °C -4.0 °F /  -20 °C 1016.8 in /  34428.8 hPa Calm   4.8 mph /  7.7 km/h 93 % 0.0 in /  0 mm
08:11 -3.1 °F /  -19.5 °C -3.9 °F /  -19.9 °C 1016.8 in /  34428.8 hPa Calm   4.8 mph /  7.7 km/h 94 % 0.0 in /  0 mm
08:17 -3.1 °F /  -19.5 °C -3.9 °F /  -19.9 °C 1016.8 in /  34428.8 hPa NNE 3.2 mph /  5.1 km/h 3.2 mph /  5.1 km/h 94 % 0.0 in /  0 mm
08:23 -3.2 °F /  -19.6 °C -4.0 °F /  -20 °C 1016.8 in /  34428.8 hPa Calm   4.8 mph /  7.7 km/h 94 % 0.0 in /  0 mm
08:29 -3.2 °F /  -19.6 °C -4.0 °F /  -20 °C 1016.8 in /  34428.8 hPa NNE 3.2 mph /  5.1 km/h 6.4 mph /  10.3 km/h 94 % 0.0 in /  0 mm
08:35 -3.1 °F /  -19.5 °C -3.9 °F /  -19.9 °C 1016.8 in /  34428.8 hPa Calm   8.0 mph /  12.9 km/h 94 % 0.0 in /  0 mm
08:41 -3.2 °F /  -19.6 °C -4.2 °F /  -20.1 °C 1016.8 in /  34428.8 hPa NNE 3.2 mph /  5.1 km/h 9.7 mph /  15.6 km/h 93 % 0.0 in /  0 mm
08:47 -3.2 °F /  -19.6 °C -4.0 °F /  -20 °C 1016.8 in /  34428.8 hPa NNE 1.4 mph /  2.3 km/h 4.8 mph /  7.7 km/h 94 % 0.0 in /  0 mm
08:53 -3.0 °F /  -19.4 °C -3.8 °F /  -19.9 °C 1016.8 in /  34428.8 hPa NNE 1.4 mph /  2.3 km/h 3.2 mph /  5.1 km/h 94 % 0.0 in /  0 mm
08:59 -2.9 °F /  -19.4 °C -3.9 °F /  -19.9 °C 1016.8 in /  34428.8 hPa NNE 1.4 mph /  2.3 km/h 4.8 mph /  7.7 km/h 93 % 0.0 in /  0 mm
09:05 -2.9 °F /  -19.4 °C -3.9 °F /  -19.9 °C 1016.8 in /  34428.8 hPa NNE 4.7 mph /  7.6 km/h 8.0 mph /  12.9 km/h 93 % 0.0 in /  0 mm
09:12 -2.8 °F /  -19.3 °C -3.8 °F /  -19.9 °C 1016.8 in /  34428.8 hPa NNE 3.2 mph /  5.1 km/h 8.0 mph /  12.9 km/h 93 % 0.0 in /  0 mm
09:18 -2.8 °F /  -19.3 °C -3.8 °F /  -19.9 °C 1016.8 in /  34428.8 hPa NNE 3.2 mph /  5.1 km/h 9.7 mph /  15.6 km/h 93 % 0.0 in /  0 mm
09:24 -2.8 °F /  -19.3 °C -3.8 °F /  -19.9 °C 1016.5 in /  34418.7 hPa NNE 3.2 mph /  5.1 km/h 8.0 mph /  12.9 km/h 93 % 0.0 in /  0 mm
09:30 -2.6 °F /  -19.2 °C -3.6 °F /  -19.8 °C 1016.5 in /  34418.7 hPa NNE 3.2 mph /  5.1 km/h 9.7 mph /  15.6 km/h 93 % 0.0 in /  0 mm
09:36 -2.5 °F /  -19.2 °C -3.5 °F /  -19.7 °C 1016.5 in /  34418.7 hPa NNE 4.7 mph /  7.6 km/h 6.4 mph /  10.3 km/h 93 % 0.0 in /  0 mm
09:42 -2.4 °F /  -19.1 °C -3.4 °F /  -19.7 °C 1016.5 in /  34418.7 hPa NNE 3.2 mph /  5.1 km/h 6.4 mph /  10.3 km/h 93 % 0.0 in /  0 mm
09:48 -2.2 °F /  -19 °C -3.3 °F /  -19.6 °C 1016.5 in /  34418.7 hPa NNE 3.2 mph /  5.1 km/h 9.7 mph /  15.6 km/h 92 % 0.0 in /  0 mm
09:54 -2.1 °F /  -18.9 °C -3.2 °F /  -19.6 °C 1016.5 in /  34418.7 hPa NNE 7.9 mph /  12.7 km/h 8.0 mph /  12.9 km/h 92 % 0.0 in /  0 mm
10:00 -2.2 °F /  -19 °C -3.5 °F /  -19.7 °C 1016.5 in /  34418.7 hPa NNE 4.7 mph /  7.6 km/h 9.7 mph /  15.6 km/h 91 % 0.0 in /  0 mm
10:06 -2.1 °F /  -18.9 °C -3.4 °F /  -19.7 °C 1016.5 in /  34418.7 hPa NNE 6.4 mph /  10.3 km/h 9.7 mph /  15.6 km/h 91 % 0.0 in /  0 mm
10:12 -1.9 °F /  -18.8 °C -3.2 °F /  -19.6 °C 1016.1 in /  34405.1 hPa NNE 7.9 mph /  12.7 km/h 12.9 mph /  20.8 km/h 91 % 0.0 in /  0 mm
10:18 -1.7 °F /  -18.7 °C -3.1 °F /  -19.5 °C 1016.1 in /  34405.1 hPa NNE 11.1 mph /  17.9 km/h 16.1 mph /  25.9 km/h 90 % 0.0 in /  0 mm
10:24 -1.6 °F /  -18.7 °C -3.0 °F /  -19.4 °C 1016.1 in /  34405.1 hPa NNE 9.7 mph /  15.6 km/h 12.9 mph /  20.8 km/h 90 % 0.0 in /  0 mm
10:30 -1.6 °F /  -18.7 °C -3.0 °F /  -19.4 °C 1016.5 in /  34418.7 hPa NNE 11.1 mph /  17.9 km/h 12.9 mph /  20.8 km/h 90 % 0.0 in /  0 mm
10:36 -1.4 °F /  -18.6 °C -3.0 °F /  -19.4 °C 1016.1 in /  34405.1 hPa NNE 9.7 mph /  15.6 km/h 12.9 mph /  20.8 km/h 89 % 0.0 in /  0 mm
10:42 -1.3 °F /  -18.5 °C -2.9 °F /  -19.4 °C 1016.1 in /  34405.1 hPa NNE 7.9 mph /  12.7 km/h 11.3 mph /  18.2 km/h 89 % 0.0 in /  0 mm
10:48 -1.2 °F /  -18.4 °C -2.8 °F /  -19.3 °C 1016.1 in /  34405.1 hPa NNE 4.7 mph /  7.6 km/h 12.9 mph /  20.8 km/h 89 % 0.0 in /  0 mm
10:54 -1.1 °F /  -18.4 °C -2.8 °F /  -19.3 °C 1016.1 in /  34405.1 hPa NNE 7.9 mph /  12.7 km/h 14.5 mph /  23.3 km/h 88 % 0.0 in /  0 mm
11:00 -1.0 °F /  -18.3 °C -2.7 °F /  -19.3 °C 1016.1 in /  34405.1 hPa SW 13.0 mph /  20.9 km/h 14.5 mph /  23.3 km/h 88 % 0.0 in /  0 mm
11:06 -0.9 °F /  -18.3 °C -2.6 °F /  -19.2 °C 1016.1 in /  34405.1 hPa SW 13.0 mph /  20.9 km/h 14.5 mph /  23.3 km/h 88 % 0.0 in /  0 mm
11:12 -0.9 °F /  -18.3 °C -2.6 °F /  -19.2 °C 1016.1 in /  34405.1 hPa SW 9.7 mph /  15.6 km/h 11.3 mph /  18.2 km/h 88 % 0.0 in /  0 mm
11:18 -0.9 °F /  -18.3 °C -2.6 °F /  -19.2 °C 1016.1 in /  34405.1 hPa SW 14.3 mph /  23 km/h 14.5 mph /  23.3 km/h 88 % 0.0 in /  0 mm
11:24 -0.8 °F /  -18.2 °C -2.4 °F /  -19.1 °C 1016.1 in /  34405.1 hPa SSW 7.9 mph /  12.7 km/h 11.3 mph /  18.2 km/h 89 % 0.0 in /  0 mm
11:30 -0.8 °F /  -18.2 °C -2.5 °F /  -19.2 °C 1016.1 in /  34405.1 hPa SSW 6.4 mph /  10.3 km/h 11.3 mph /  18.2 km/h 88 % 0.0 in /  0 mm
11:36 -0.7 °F /  -18.2 °C -2.4 °F /  -19.1 °C 1015.8 in /  34395 hPa SW 9.7 mph /  15.6 km/h 11.3 mph /  18.2 km/h 88 % 0.0 in /  0 mm
11:42 -0.7 °F /  -18.2 °C -2.4 °F /  -19.1 °C 1015.8 in /  34395 hPa SSW 9.7 mph /  15.6 km/h 11.3 mph /  18.2 km/h 88 % 0.0 in /  0 mm
11:48 -0.6 °F /  -18.1 °C -2.3 °F /  -19.1 °C 1015.5 in /  34384.8 hPa SSW 6.4 mph /  10.3 km/h 9.7 mph /  15.6 km/h 88 % 0.0 in /  0 mm
11:54 -0.6 °F /  -18.1 °C -2.3 °F /  -19.1 °C 1015.5 in /  34384.8 hPa SSW 7.9 mph /  12.7 km/h 16.1 mph /  25.9 km/h 88 % 0.0 in /  0 mm
12:00 -0.6 °F /  -18.1 °C -2.3 °F /  -19.1 °C 1015.5 in /  34384.8 hPa SSW 7.9 mph /  12.7 km/h 12.9 mph /  20.8 km/h 88 % 0.0 in /  0 mm
12:06 -0.6 °F /  -18.1 °C -2.3 °F /  -19.1 °C 1015.5 in /  34384.8 hPa South 6.4 mph /  10.3 km/h 11.3 mph /  18.2 km/h 88 % 0.0 in /  0 mm
12:12 -0.4 °F /  -18 °C -2.1 °F /  -18.9 °C 1015.5 in /  34384.8 hPa South 9.7 mph /  15.6 km/h 12.9 mph /  20.8 km/h 88 % 0.0 in /  0 mm
12:18 -0.3 °F /  -17.9 °C -2.2 °F /  -19 °C 1015.5 in /  34384.8 hPa South 11.1 mph /  17.9 km/h 12.9 mph /  20.8 km/h 87 % 0.0 in /  0 mm
12:24 -0.3 °F /  -17.9 °C -2.4 °F /  -19.1 °C 1015.1 in /  34371.3 hPa SSW 11.1 mph /  17.9 km/h 16.1 mph /  25.9 km/h 86 % 0.0 in /  0 mm
12:30 -0.2 °F /  -17.9 °C -2.1 °F /  -18.9 °C 1015.1 in /  34371.3 hPa SW 11.1 mph /  17.9 km/h 17.7 mph /  28.5 km/h 87 % 0.0 in /  0 mm
12:36 -0.2 °F /  -17.9 °C -2.1 °F /  -18.9 °C 1015.1 in /  34371.3 hPa SW 9.7 mph /  15.6 km/h 17.7 mph /  28.5 km/h 87 % 0.0 in /  0 mm
12:42 -0.1 °F /  -17.8 °C -2.2 °F /  -19 °C 1015.1 in /  34371.3 hPa SSW 11.1 mph /  17.9 km/h 14.5 mph /  23.3 km/h 86 % 0.0 in /  0 mm
12:48 0.1 °F /  -17.7 °C -2.0 °F /  -18.9 °C 1015.1 in /  34371.3 hPa SW 11.1 mph /  17.9 km/h 16.1 mph /  25.9 km/h 86 % 0.0 in /  0 mm
12:54 0.1 °F /  -17.7 °C -2.0 °F /  -18.9 °C 1015.1 in /  34371.3 hPa SW 14.3 mph /  23 km/h 17.7 mph /  28.5 km/h 86 % 0.0 in /  0 mm
13:00 0.2 °F /  -17.7 °C -1.9 °F /  -18.8 °C 1014.8 in /  34361.1 hPa SSW 16.3 mph /  26.2 km/h 16.3 mph /  26.2 km/h 86 % 0.0 in /  0 mm
13:06 0.2 °F /  -17.7 °C -1.9 °F /  -18.8 °C 1014.8 in /  34361.1 hPa South 11.1 mph /  17.9 km/h 17.7 mph /  28.5 km/h 86 % 0.0 in /  0 mm
13:12 0.3 °F /  -17.6 °C -1.8 °F /  -18.8 °C 1014.8 in /  34361.1 hPa SW 9.7 mph /  15.6 km/h 16.1 mph /  25.9 km/h 86 % 0.0 in /  0 mm
13:18 0.3 °F /  -17.6 °C -1.8 °F /  -18.8 °C 1014.4 in /  34347.6 hPa SW 11.1 mph /  17.9 km/h 16.1 mph /  25.9 km/h 86 % 0.0 in /  0 mm
13:24 0.3 °F /  -17.6 °C -1.8 °F /  -18.8 °C 1014.4 in /  34347.6 hPa SW 11.1 mph /  17.9 km/h 17.7 mph /  28.5 km/h 86 % 0.0 in /  0 mm
13:30 0.3 °F /  -17.6 °C -1.6 °F /  -18.7 °C 1014.4 in /  34347.6 hPa SSW 11.1 mph /  17.9 km/h 11.3 mph /  18.2 km/h 87 % 0.0 in /  0 mm
13:36 0.2 °F /  -17.7 °C -1.9 °F /  -18.8 °C 1014.8 in /  34361.1 hPa WSW 7.9 mph /  12.7 km/h 14.5 mph /  23.3 km/h 86 % 0.0 in /  0 mm
13:42 0.3 °F /  -17.6 °C -1.8 °F /  -18.8 °C 1014.4 in /  34347.6 hPa SW 13.0 mph /  20.9 km/h 19.3 mph /  31.1 km/h 86 % 0.0 in /  0 mm
13:48 0.3 °F /  -17.6 °C -1.6 °F /  -18.7 °C 1014.4 in /  34347.6 hPa WSW 9.7 mph /  15.6 km/h 16.1 mph /  25.9 km/h 87 % 0.0 in /  0 mm
13:54 0.3 °F /  -17.6 °C -1.6 °F /  -18.7 °C 1014.4 in /  34347.6 hPa SSW 13.0 mph /  20.9 km/h 20.9 mph /  33.6 km/h 87 % 0.0 in /  0 mm
14:00 0.3 °F /  -17.6 °C -1.6 °F /  -18.7 °C 1014.4 in /  34347.6 hPa South 11.1 mph /  17.9 km/h 14.5 mph /  23.3 km/h 87 % 0.0 in /  0 mm
14:06 0.3 °F /  -17.6 °C -1.5 °F /  -18.6 °C 1014.4 in /  34347.6 hPa SSW 11.1 mph /  17.9 km/h 16.1 mph /  25.9 km/h 88 % 0.0 in /  0 mm
14:12 0.4 °F /  -17.6 °C -1.2 °F /  -18.4 °C 1014.1 in /  34337.4 hPa SW 13.0 mph /  20.9 km/h 17.7 mph /  28.5 km/h 89 % 0.0 in /  0 mm
14:18 0.4 °F /  -17.6 °C -1.2 °F /  -18.4 °C 1014.4 in /  34347.6 hPa SW 9.7 mph /  15.6 km/h 14.5 mph /  23.3 km/h 89 % 0.0 in /  0 mm
14:24 0.3 °F /  -17.6 °C -1.3 °F /  -18.5 °C 1014.1 in /  34337.4 hPa SW 13.0 mph /  20.9 km/h 16.1 mph /  25.9 km/h 89 % 0.0 in /  0 mm
14:30 0.1 °F /  -17.7 °C -1.3 °F /  -18.5 °C 1014.1 in /  34337.4 hPa SSW 13.0 mph /  20.9 km/h 17.7 mph /  28.5 km/h 90 % 0.0 in /  0 mm
14:36 0.1 °F /  -17.7 °C -1.0 °F /  -18.3 °C 1014.1 in /  34337.4 hPa SSW 9.7 mph /  15.6 km/h 14.5 mph /  23.3 km/h 92 % 0.0 in /  0 mm
14:42 0.0 °F /  -17.8 °C -1.1 °F /  -18.4 °C 1014.1 in /  34337.4 hPa SSW 9.7 mph /  15.6 km/h 14.5 mph /  23.3 km/h 92 % 0.0 in /  0 mm
14:48 -0.1 °F /  -17.8 °C -1.1 °F /  -18.4 °C 1014.1 in /  34337.4 hPa SSW 6.4 mph /  10.3 km/h 14.5 mph /  23.3 km/h 93 % 0.0 in /  0 mm
14:54 -0.2 °F /  -17.9 °C -1.0 °F /  -18.3 °C 1014.1 in /  34337.4 hPa South 7.9 mph /  12.7 km/h 9.7 mph /  15.6 km/h 94 % 0.0 in /  0 mm
15:00 -0.2 °F /  -17.9 °C -1.0 °F /  -18.3 °C 1014.1 in /  34337.4 hPa SSW 6.4 mph /  10.3 km/h 11.3 mph /  18.2 km/h 94 % 0.0 in /  0 mm
15:06 -0.2 °F /  -17.9 °C -0.9 °F /  -18.3 °C 1014.1 in /  34337.4 hPa SW 4.7 mph /  7.6 km/h 8.0 mph /  12.9 km/h 95 % 0.0 in /  0 mm
15:12 -0.3 °F /  -17.9 °C -1.0 °F /  -18.3 °C 1014.1 in /  34337.4 hPa SSW 6.4 mph /  10.3 km/h 6.4 mph /  10.3 km/h 95 % 0.0 in /  0 mm
15:18 -0.3 °F /  -17.9 °C -1.0 °F /  -18.3 °C 1014.1 in /  34337.4 hPa SSW 4.7 mph /  7.6 km/h 8.0 mph /  12.9 km/h 95 % 0.0 in /  0 mm
15:24 -0.3 °F /  -17.9 °C -0.9 °F /  -18.3 °C 1014.1 in /  34337.4 hPa SW 7.9 mph /  12.7 km/h 9.7 mph /  15.6 km/h 96 % 0.0 in /  0 mm
15:30 -0.3 °F /  -17.9 °C -0.9 °F /  -18.3 °C 1014.1 in /  34337.4 hPa SSW 6.4 mph /  10.3 km/h 12.9 mph /  20.8 km/h 96 % 0.0 in /  0 mm
15:36 -0.3 °F /  -17.9 °C -0.9 °F /  -18.3 °C 1014.1 in /  34337.4 hPa SSW 6.4 mph /  10.3 km/h 9.7 mph /  15.6 km/h 96 % 0.0 in /  0 mm
15:42 -0.3 °F /  -17.9 °C -0.9 °F /  -18.3 °C 1014.1 in /  34337.4 hPa SSW 6.4 mph /  10.3 km/h 9.7 mph /  15.6 km/h 96 % 0.0 in /  0 mm
15:48 -0.3 °F /  -17.9 °C -0.9 °F /  -18.3 °C 1014.1 in /  34337.4 hPa SSW 6.4 mph /  10.3 km/h 8.0 mph /  12.9 km/h 96 % 0.0 in /  0 mm
15:54 -0.3 °F /  -17.9 °C -0.9 °F /  -18.3 °C 1014.1 in /  34337.4 hPa SSW 6.4 mph /  10.3 km/h 9.7 mph /  15.6 km/h 96 % 0.0 in /  0 mm
16:00 -0.3 °F /  -17.9 °C -0.9 °F /  -18.3 °C 1014.1 in /  34337.4 hPa SSW 6.4 mph /  10.3 km/h 9.7 mph /  15.6 km/h 96 % 0.0 in /  0 mm
16:06 -0.3 °F /  -17.9 °C -0.9 °F /  -18.3 °C 1014.1 in /  34337.4 hPa SSW 3.2 mph /  5.1 km/h 6.4 mph /  10.3 km/h 96 % 0.0 in /  0 mm
16:12 -0.3 °F /  -17.9 °C -0.9 °F /  -18.3 °C 1014.1 in /  34337.4 hPa South 3.2 mph /  5.1 km/h 6.4 mph /  10.3 km/h 96 % 0.0 in /  0 mm
16:18 -0.2 °F /  -17.9 °C -0.8 °F /  -18.2 °C 1014.1 in /  34337.4 hPa SW 4.7 mph /  7.6 km/h 6.4 mph /  10.3 km/h 96 % 0.0 in /  0 mm
16:24 -0.2 °F /  -17.9 °C -0.8 °F /  -18.2 °C 1014.1 in /  34337.4 hPa SSW 4.7 mph /  7.6 km/h 4.8 mph /  7.7 km/h 96 % 0.0 in /  0 mm
16:30 -0.2 °F /  -17.9 °C -0.8 °F /  -18.2 °C 1014.1 in /  34337.4 hPa SSW 6.4 mph /  10.3 km/h 6.4 mph /  10.3 km/h 96 % 0.0 in /  0 mm
16:36 -0.2 °F /  -17.9 °C -0.6 °F /  -18.1 °C 1014.1 in /  34337.4 hPa SW 4.7 mph /  7.6 km/h 4.8 mph /  7.7 km/h 97 % 0.0 in /  0 mm
16:42 -0.2 °F /  -17.9 °C -0.6 °F /  -18.1 °C 1014.1 in /  34337.4 hPa SW 1.4 mph /  2.3 km/h 4.8 mph /  7.7 km/h 97 % 0.0 in /  0 mm
16:48 -0.2 °F /  -17.9 °C -0.6 °F /  -18.1 °C 1014.1 in /  34337.4 hPa SSW 3.2 mph /  5.1 km/h 6.4 mph /  10.3 km/h 97 % 0.0 in /  0 mm
16:54 -0.2 °F /  -17.9 °C -0.6 °F /  -18.1 °C 1014.1 in /  34337.4 hPa SW 1.4 mph /  2.3 km/h 3.2 mph /  5.1 km/h 97 % 0.0 in /  0 mm
17:00 -0.2 °F /  -17.9 °C -0.6 °F /  -18.1 °C 1014.1 in /  34337.4 hPa SSW 3.2 mph /  5.1 km/h 4.8 mph /  7.7 km/h 97 % 0.0 in /  0 mm
17:06 -0.1 °F /  -17.8 °C -0.5 °F /  -18.1 °C 1014.1 in /  34337.4 hPa SW 4.7 mph /  7.6 km/h 6.4 mph /  10.3 km/h 97 % 0.0 in /  0 mm
17:12 -0.1 °F /  -17.8 °C -0.5 °F /  -18.1 °C 1014.1 in /  34337.4 hPa SSW 4.7 mph /  7.6 km/h 4.8 mph /  7.7 km/h 97 % 0.0 in /  0 mm
17:18 -0.1 °F /  -17.8 °C -0.5 °F /  -18.1 °C 1014.1 in /  34337.4 hPa WSW 1.4 mph /  2.3 km/h 3.2 mph /  5.1 km/h 97 % 0.0 in /  0 mm
17:24 -0.1 °F /  -17.8 °C -0.5 °F /  -18.1 °C 1014.1 in /  34337.4 hPa Calm   1.6 mph /  2.6 km/h 97 % 0.0 in /  0 mm
17:30 -0.1 °F /  -17.8 °C -0.5 °F /  -18.1 °C 1014.1 in /  34337.4 hPa Calm   1.6 mph /  2.6 km/h 97 % 0.0 in /  0 mm
17:36 -0.1 °F /  -17.8 °C -0.5 °F /  -18.1 °C 1014.4 in /  34347.6 hPa Calm     97 % 0.0 in /  0 mm
17:42 -0.1 °F /  -17.8 °C -0.5 °F /  -18.1 °C 1014.4 in /  34347.6 hPa Calm     97 % 0.0 in /  0 mm
17:48 0.0 °F /  -17.8 °C -0.4 °F /  -18 °C 1014.4 in /  34347.6 hPa Calm     97 % 0.0 in /  0 mm
17:54 0.0 °F /  -17.8 °C -0.6 °F /  -18.1 °C 1014.4 in /  34347.6 hPa Calm     96 % 0.0 in /  0 mm
18:00 -0.1 °F /  -17.8 °C -0.7 °F /  -18.2 °C 1014.4 in /  34347.6 hPa Calm   1.6 mph /  2.6 km/h 96 % 0.0 in /  0 mm
18:06 -0.1 °F /  -17.8 °C -0.7 °F /  -18.2 °C 1014.8 in /  34361.1 hPa Calm   1.6 mph /  2.6 km/h 96 % 0.0 in /  0 mm
18:12 -0.1 °F /  -17.8 °C -0.7 °F /  -18.2 °C 1014.8 in /  34361.1 hPa Calm   1.6 mph /  2.6 km/h 96 % 0.0 in /  0 mm
18:18 0.0 °F /  -17.8 °C -0.6 °F /  -18.1 °C 1014.8 in /  34361.1 hPa Calm   1.6 mph /  2.6 km/h 96 % 0.0 in /  0 mm
18:25 0.0 °F /  -17.8 °C -0.6 °F /  -18.1 °C 1014.8 in /  34361.1 hPa Calm   1.6 mph /  2.6 km/h 96 % 0.0 in /  0 mm
18:31 0.1 °F /  -17.7 °C -0.5 °F /  -18.1 °C 1014.8 in /  34361.1 hPa Calm     96 % 0.0 in /  0 mm
18:37 0.2 °F /  -17.7 °C -0.4 °F /  -18 °C 1014.8 in /  34361.1 hPa Calm     96 % 0.0 in /  0 mm
18:43 0.2 °F /  -17.7 °C -0.4 °F /  -18 °C 1015.1 in /  34371.3 hPa Calm   1.6 mph /  2.6 km/h 96 % 0.0 in /  0 mm
18:49 0.2 °F /  -17.7 °C -0.4 °F /  -18 °C 1015.1 in /  34371.3 hPa Calm   1.6 mph /  2.6 km/h 96 % 0.0 in /  0 mm
18:55 0.2 °F /  -17.7 °C -0.5 °F /  -18.1 °C 1015.5 in /  34384.8 hPa Calm   1.6 mph /  2.6 km/h 95 % 0.0 in /  0 mm
19:01 0.2 °F /  -17.7 °C -0.5 °F /  -18.1 °C 1015.5 in /  34384.8 hPa Calm   3.2 mph /  5.1 km/h 95 % 0.0 in /  0 mm
19:07 0.2 °F /  -17.7 °C -0.5 °F /  -18.1 °C 1015.5 in /  34384.8 hPa WNW 3.2 mph /  5.1 km/h 3.2 mph /  5.1 km/h 95 % 0.0 in /  0 mm
19:13 0.3 °F /  -17.6 °C -0.4 °F /  -18 °C 1015.5 in /  34384.8 hPa WNW 3.2 mph /  5.1 km/h 6.4 mph /  10.3 km/h 95 % 0.0 in /  0 mm
19:19 0.4 °F /  -17.6 °C -0.3 °F /  -17.9 °C 1015.8 in /  34395 hPa NW 3.2 mph /  5.1 km/h 6.4 mph /  10.3 km/h 95 % 0.0 in /  0 mm
19:25 0.4 °F /  -17.6 °C -0.3 °F /  -17.9 °C 1015.8 in /  34395 hPa NW 4.7 mph /  7.6 km/h 6.4 mph /  10.3 km/h 95 % 0.0 in /  0 mm
19:31 0.4 °F /  -17.6 °C -0.3 °F /  -17.9 °C 1015.8 in /  34395 hPa NW 4.7 mph /  7.6 km/h 8.0 mph /  12.9 km/h 95 % 0.0 in /  0 mm
19:37 0.4 °F /  -17.6 °C -0.3 °F /  -17.9 °C 1015.8 in /  34395 hPa West 6.4 mph /  10.3 km/h 9.7 mph /  15.6 km/h 95 % 0.0 in /  0 mm
19:43 0.4 °F /  -17.6 °C -0.3 °F /  -17.9 °C 1016.1 in /  34405.1 hPa West 9.7 mph /  15.6 km/h 9.7 mph /  15.6 km/h 95 % 0.0 in /  0 mm
19:49 0.4 °F /  -17.6 °C -0.3 °F /  -17.9 °C 1016.1 in /  34405.1 hPa WNW 1.4 mph /  2.3 km/h 9.7 mph /  15.6 km/h 95 % 0.0 in /  0 mm
19:55 0.4 °F /  -17.6 °C -0.3 °F /  -17.9 °C 1016.1 in /  34405.1 hPa WNW 4.7 mph /  7.6 km/h 6.4 mph /  10.3 km/h 95 % 0.0 in /  0 mm
20:01 0.4 °F /  -17.6 °C -0.3 °F /  -17.9 °C 1016.1 in /  34405.1 hPa WNW 1.4 mph /  2.3 km/h 4.8 mph /  7.7 km/h 95 % 0.0 in /  0 mm
20:07 0.3 °F /  -17.6 °C -0.4 °F /  -18 °C 1016.1 in /  34405.1 hPa WNW 4.7 mph /  7.6 km/h 9.7 mph /  15.6 km/h 95 % 0.0 in /  0 mm
20:13 0.4 °F /  -17.6 °C -0.5 °F /  -18.1 °C 1016.5 in /  34418.7 hPa West 4.7 mph /  7.6 km/h 9.7 mph /  15.6 km/h 94 % 0.0 in /  0 mm
20:19 0.4 °F /  -17.6 °C -0.5 °F /  -18.1 °C 1016.5 in /  34418.7 hPa WNW 4.7 mph /  7.6 km/h 9.7 mph /  15.6 km/h 94 % 0.0 in /  0 mm
20:25 0.4 °F /  -17.6 °C -0.5 °F /  -18.1 °C 1016.5 in /  34418.7 hPa WNW 3.2 mph /  5.1 km/h 16.1 mph /  25.9 km/h 94 % 0.0 in /  0 mm
20:31 0.4 °F /  -17.6 °C -0.5 °F /  -18.1 °C 1016.5 in /  34418.7 hPa West 3.2 mph /  5.1 km/h 9.7 mph /  15.6 km/h 94 % 0.0 in /  0 mm
20:37 0.4 °F /  -17.6 °C -0.5 °F /  -18.1 °C 1016.5 in /  34418.7 hPa West 4.7 mph /  7.6 km/h 9.7 mph /  15.6 km/h 94 % 0.0 in /  0 mm
20:43 0.4 °F /  -17.6 °C -0.5 °F /  -18.1 °C 1016.8 in /  34428.8 hPa WNW 3.2 mph /  5.1 km/h 11.3 mph /  18.2 km/h 94 % 0.0 in /  0 mm
20:49 0.4 °F /  -17.6 °C -0.5 °F /  -18.1 °C 1016.5 in /  34418.7 hPa West 1.4 mph /  2.3 km/h 12.9 mph /  20.8 km/h 94 % 0.0 in /  0 mm
20:55 0.4 °F /  -17.6 °C -0.5 °F /  -18.1 °C 1016.8 in /  34428.8 hPa West 4.7 mph /  7.6 km/h 11.3 mph /  18.2 km/h 94 % 0.0 in /  0 mm
21:01 0.4 °F /  -17.6 °C -0.6 °F /  -18.1 °C 1016.8 in /  34428.8 hPa WSW 1.4 mph /  2.3 km/h 8.0 mph /  12.9 km/h 93 % 0.0 in /  0 mm
21:07 0.4 °F /  -17.6 °C -0.6 °F /  -18.1 °C 1016.8 in /  34428.8 hPa WNW 3.2 mph /  5.1 km/h 9.7 mph /  15.6 km/h 93 % 0.0 in /  0 mm
21:13 0.4 °F /  -17.6 °C -0.5 °F /  -18.1 °C 1016.8 in /  34428.8 hPa West 1.4 mph /  2.3 km/h 9.7 mph /  15.6 km/h 94 % 0.0 in /  0 mm
21:19 0.6 °F /  -17.4 °C -0.3 °F /  -17.9 °C 1016.8 in /  34428.8 hPa NW 1.4 mph /  2.3 km/h 8.0 mph /  12.9 km/h 94 % 0.0 in /  0 mm
21:25 0.6 °F /  -17.4 °C -0.4 °F /  -18 °C 1016.8 in /  34428.8 hPa NW 4.7 mph /  7.6 km/h 6.4 mph /  10.3 km/h 93 % 0.0 in /  0 mm
21:31 0.6 °F /  -17.4 °C -0.4 °F /  -18 °C 1016.8 in /  34428.8 hPa WNW 4.7 mph /  7.6 km/h 8.0 mph /  12.9 km/h 93 % 0.0 in /  0 mm
21:37 0.6 °F /  -17.4 °C -0.4 °F /  -18 °C 1017.2 in /  34442.4 hPa WNW 6.4 mph /  10.3 km/h 9.7 mph /  15.6 km/h 93 % 0.0 in /  0 mm
21:43 0.6 °F /  -17.4 °C -0.4 °F /  -18 °C 1017.2 in /  34442.4 hPa West 4.7 mph /  7.6 km/h 6.4 mph /  10.3 km/h 93 % 0.0 in /  0 mm
21:49 0.6 °F /  -17.4 °C -0.4 °F /  -18 °C 1017.2 in /  34442.4 hPa WNW 4.7 mph /  7.6 km/h 8.0 mph /  12.9 km/h 93 % 0.0 in /  0 mm
21:55 0.7 °F /  -17.4 °C -0.3 °F /  -17.9 °C 1017.2 in /  34442.4 hPa West 6.4 mph /  10.3 km/h 11.3 mph /  18.2 km/h 93 % 0.0 in /  0 mm
22:01 0.7 °F /  -17.4 °C -0.3 °F /  -17.9 °C 1017.2 in /  34442.4 hPa West 7.9 mph /  12.7 km/h 11.3 mph /  18.2 km/h 93 % 0.0 in /  0 mm
22:07 0.7 °F /  -17.4 °C -0.3 °F /  -17.9 °C 1017.2 in /  34442.4 hPa WNW 4.7 mph /  7.6 km/h 8.0 mph /  12.9 km/h 93 % 0.0 in /  0 mm
22:13 0.7 °F /  -17.4 °C -0.3 °F /  -17.9 °C 1017.5 in /  34452.6 hPa West 3.2 mph /  5.1 km/h 9.7 mph /  15.6 km/h 93 % 0.0 in /  0 mm
22:19 0.7 °F /  -17.4 °C -0.3 °F /  -17.9 °C 1017.5 in /  34452.6 hPa West 7.9 mph /  12.7 km/h 9.7 mph /  15.6 km/h 93 % 0.0 in /  0 mm
22:25 0.8 °F /  -17.3 °C -0.2 °F /  -17.9 °C 1017.5 in /  34452.6 hPa WNW 3.2 mph /  5.1 km/h 11.3 mph /  18.2 km/h 93 % 0.0 in /  0 mm
22:31 0.8 °F /  -17.3 °C -0.2 °F /  -17.9 °C 1017.5 in /  34452.6 hPa WNW 7.9 mph /  12.7 km/h 9.7 mph /  15.6 km/h 93 % 0.0 in /  0 mm
22:37 0.7 °F /  -17.4 °C -0.3 °F /  -17.9 °C 1017.5 in /  34452.6 hPa WNW 7.9 mph /  12.7 km/h 9.7 mph /  15.6 km/h 93 % 0.0 in /  0 mm
22:43 0.8 °F /  -17.3 °C -0.2 °F /  -17.9 °C 1017.5 in /  34452.6 hPa West 6.4 mph /  10.3 km/h 11.3 mph /  18.2 km/h 93 % 0.0 in /  0 mm
22:49 0.8 °F /  -17.3 °C -0.2 °F /  -17.9 °C 1017.5 in /  34452.6 hPa NW 6.4 mph /  10.3 km/h 12.9 mph /  20.8 km/h 93 % 0.0 in /  0 mm
22:55 0.8 °F /  -17.3 °C -0.2 °F /  -17.9 °C 1017.5 in /  34452.6 hPa WNW 6.4 mph /  10.3 km/h 11.3 mph /  18.2 km/h 93 % 0.0 in /  0 mm
23:01 0.8 °F /  -17.3 °C -0.2 °F /  -17.9 °C 1017.5 in /  34452.6 hPa WNW 7.9 mph /  12.7 km/h 14.5 mph /  23.3 km/h 93 % 0.0 in /  0 mm
23:07 0.9 °F /  -17.3 °C -0.1 °F /  -17.8 °C 1017.5 in /  34452.6 hPa WNW 1.4 mph /  2.3 km/h 11.3 mph /  18.2 km/h 93 % 0.0 in /  0 mm
23:13 0.8 °F /  -17.3 °C -0.2 °F /  -17.9 °C 1017.8 in /  34462.7 hPa West 4.7 mph /  7.6 km/h 12.9 mph /  20.8 km/h 93 % 0.0 in /  0 mm
23:19 0.8 °F /  -17.3 °C -0.2 °F /  -17.9 °C 1017.5 in /  34452.6 hPa NW 11.1 mph /  17.9 km/h 12.9 mph /  20.8 km/h 93 % 0.0 in /  0 mm
23:25 0.8 °F /  -17.3 °C -0.2 °F /  -17.9 °C 1017.5 in /  34452.6 hPa WNW 7.9 mph /  12.7 km/h 12.9 mph /  20.8 km/h 93 % 0.0 in /  0 mm
23:31 0.8 °F /  -17.3 °C -0.2 °F /  -17.9 °C 1017.8 in /  34462.7 hPa NW 6.4 mph /  10.3 km/h 11.3 mph /  18.2 km/h 93 % 0.0 in /  0 mm
23:37 0.8 °F /  -17.3 °C -0.2 °F /  -17.9 °C 1017.8 in /  34462.7 hPa NNW 6.4 mph /  10.3 km/h 11.3 mph /  18.2 km/h 93 % 0.0 in /  0 mm
23:43 0.7 °F /  -17.4 °C -0.3 °F /  -17.9 °C 1017.8 in /  34462.7 hPa West 7.9 mph /  12.7 km/h 11.3 mph /  18.2 km/h 93 % 0.0 in /  0 mm
23:49 0.7 °F /  -17.4 °C -0.3 °F /  -17.9 °C 1017.8 in /  34462.7 hPa WNW 1.4 mph /  2.3 km/h 11.3 mph /  18.2 km/h 93 % 0.0 in /  0 mm
23:55 0.6 °F /  -17.4 °C -0.4 °F /  -18 °C 1018.2 in /  34476.3 hPa WNW 6.4 mph /  10.3 km/h 11.3 mph /  18.2 km/h 93 % 0.0 in /  0 mm
Meteo18
Compliments of Weather Underground - 4 mb

Script developed by  Jim McMurry - jmcmurry@mwt.net Adapted for the template by  Wim van der Kuil - Leuven-Template.eu

You find our weather info also at:

European Weather Network

Weather Underground

Equipment we use:

Weather-station
Davis Vue

Weather-program
Meteobridge

Weather-server
Raspberry PI 2 B+

Provider
1 and 1

Davis Vue

Meteobridge

Raspberry PI 2 B+

1 and 1